Главная страница
METAR-TAF:

METAR-TAF

Аэропорты :

Ангилья, Ангилья

широта: 18-12-17N, долгота: 063-03-18W, высота над уровнем моря: 31 м

Текущие метеонаблюдения

Эта сводка был подготовлена 32 минут назад, в 13:00 UTC
Ветер 14 Узел от восточно-юго-восточный
Температура 27°C
Влажность 74%
Давление 1019 hPa
Видимость 10 км и более
небольшая облачность на высоте 1700 фута

METAR: TQPF 231300Z 11014KT 9999 FEW017 27/22 Q1019

Время: 09:32 (13:32 UTC)

Прогноз

Эта сводка был подготовлена 2 часа и 32 минут назад, в 11:00 UTC
Прогноз действительный с 23-го 12 UTC до 24-го 12 UTC
Ветер 15 Узел от восточный
Видимость 10 км и более
Отдельные облака на высоте 1800 фута
Вероятность 40% :
временами
С 23-го 12 UTC до 23-го 18 UTC
ливневые дожди

TAF: TQPF 231100Z 2312/2412 10015KT 9999 SCT018 PROB40 TEMPO 2312/2318 SHRA

Метеонаблюдения и прогнозы для более 4000 аэропортов (сводки METAR и TAF).

Имеющиеся станции представлены на карте желтыми и красными точками.

Чтобы увидеть название станции, наведите на нее мышь.

Затем щелкните, чтобы увидеть метеонаблюдения и метеопрогнозы.

Управление картой: чтобы увеличить масштаб, щелкните зеленые кнопки с черным крестиком; чтобы уменьшить масштаб, щелкните зеленую кнопку с тире; для просмотра соседних карт щелкайте зеленые стрелки.


METAR-TAF: